Terminal Aerodrome Forecast
Issued by NWS Columbia, SC

Home | Current Version | Previous Version | Text Only | Print | Product List | Glossary On
Versions: 1 2 3 4 5 6 7 8 9 10 11 12 13 14 15 16 17 18 19 20 21 22 23 24 25 26 27
000
FTUS42 KCAE 231500 AAA
TAFCAE
TAF AMD
KCAE 231558Z 2316/2412 06008KT 1SM -RA BR OVC006 WS020/17040KT
     FM232300 12007KT 3SM -RA BR BKN006 WS020/19045KT
      TEMPO 2400/2404 1SM -TSRA BR BKN008CB
     FM240400 21010KT 5SM BR VCSH OVC008=

USA.gov is the U.S. government's official web portal to all federal, state and local government web resources and services.